SBI907 UIII-UHHH
Flight info
| Callsign | SBI907 |
|---|---|
| Flight time | N/A |
| Altitude | 35000 |
| Route | GOLOS A810 KUDAR P873 NIKTO G229 GU N992 TORMA A946 IVADA |
| Aircraft | A320/M-SDE3FGHIRWY/LB1 |
Departure
| Time | 2026-05-09 13:53 |
|---|---|
| Airport | Irkutsk International Airport (UIII) |
Arrival
| Time | N/A |
|---|---|
| Airport | Khabarovsk Novy Airport (UHHH) |
| Time | Latitude | Longitude | Altitude | Speed | Heading |
|---|---|---|---|---|---|
| 2026-05-09 13:34 | 52.27131 | 104.36184 | 1585 ft | 0 kts | 177° |
| 2026-05-09 13:47 | 52.27125 | 104.36185 | 1584 ft | 2 kts | 177° |
| 2026-05-09 13:47 | 52.27110 | 104.36188 | 1593 ft | 4 kts | 169° |
| 2026-05-09 13:47 | 52.27095 | 104.36236 | 1584 ft | 7 kts | 95° |
| 2026-05-09 13:48 | 52.27085 | 104.36340 | 1584 ft | 12 kts | 107° |
| 2026-05-09 13:48 | 52.27054 | 104.36490 | 1584 ft | 16 kts | 109° |
| 2026-05-09 13:48 | 52.27012 | 104.36688 | 1586 ft | 20 kts | 109° |
| 2026-05-09 13:48 | 52.26961 | 104.36909 | 1590 ft | 21 kts | 111° |
| 2026-05-09 13:49 | 52.26936 | 104.37087 | 1594 ft | 13 kts | 66° |
| 2026-05-09 13:49 | 52.26996 | 104.37211 | 1596 ft | 15 kts | 53° |
| 2026-05-09 13:49 | 52.27062 | 104.37359 | 1598 ft | 17 kts | 54° |
| 2026-05-09 13:49 | 52.27103 | 104.37454 | 1602 ft | 0 kts | 54° |
| 2026-05-09 13:50 | 52.27106 | 104.37460 | 1601 ft | 2 kts | 54° |
| 2026-05-09 13:51 | 52.27117 | 104.37486 | 1602 ft | 4 kts | 54° |
| 2026-05-09 13:51 | 52.27137 | 104.37531 | 1600 ft | 6 kts | 54° |
| 2026-05-09 13:51 | 52.27164 | 104.37594 | 1607 ft | 8 kts | 54° |
| 2026-05-09 13:51 | 52.27187 | 104.37685 | 1603 ft | 10 kts | 98° |
| 2026-05-09 13:52 | 52.27184 | 104.37698 | 1613 ft | 0 kts | 110° |
| 2026-05-09 13:52 | 52.27173 | 104.37744 | 1608 ft | 23 kts | 111° |
| 2026-05-09 13:53 | 52.27012 | 104.38383 | 1622 ft | 96 kts | 114° |
| 2026-05-09 13:53 | 52.26667 | 104.39665 | 1646 ft | 151 kts | 113° |
| 2026-05-09 13:53 | 52.26186 | 104.41401 | 1932 ft | 176 kts | 113° |
| 2026-05-09 13:53 | 52.25664 | 104.43261 | 2602 ft | 183 kts | 110° |
| 2026-05-09 13:54 | 52.25200 | 104.45185 | 3239 ft | 184 kts | 99° |
| 2026-05-09 13:54 | 52.25131 | 104.47364 | 3513 ft | 203 kts | 83° |
| 2026-05-09 13:54 | 52.25289 | 104.49783 | 3800 ft | 226 kts | 81° |
| 2026-05-09 13:54 | 52.25498 | 104.52467 | 4125 ft | 250 kts | 81° |
| 2026-05-09 13:55 | 52.25700 | 104.55408 | 4573 ft | 268 kts | 83° |
| 2026-05-09 13:55 | 52.25873 | 104.58485 | 5277 ft | 276 kts | 84° |
| 2026-05-09 13:55 | 52.26017 | 104.61636 | 6038 ft | 281 kts | 85° |
| 2026-05-09 13:55 | 52.26141 | 104.64854 | 6783 ft | 286 kts | 85° |
| 2026-05-09 13:56 | 52.26255 | 104.68121 | 7527 ft | 291 kts | 85° |
| 2026-05-09 13:56 | 52.26365 | 104.71438 | 8278 ft | 295 kts | 84° |
| 2026-05-09 13:56 | 52.26472 | 104.74801 | 9033 ft | 299 kts | 84° |
| 2026-05-09 13:56 | 52.26577 | 104.78209 | 9786 ft | 303 kts | 84° |
| 2026-05-09 13:57 | 52.26682 | 104.81692 | 10262 ft | 317 kts | 84° |
| 2026-05-09 13:57 | 52.26796 | 104.85418 | 10445 ft | 340 kts | 84° |
| 2026-05-09 13:57 | 52.26919 | 104.89405 | 10588 ft | 364 kts | 84° |
| 2026-05-09 13:57 | 52.27048 | 104.93649 | 10758 ft | 383 kts | 84° |
| 2026-05-09 13:58 | 52.27180 | 104.98039 | 11284 ft | 391 kts | 84° |
| 2026-05-09 13:58 | 52.27312 | 105.02496 | 11924 ft | 395 kts | 84° |
| 2026-05-09 13:58 | 52.27439 | 105.06988 | 12570 ft | 398 kts | 84° |
| 2026-05-09 13:58 | 52.27563 | 105.11459 | 13193 ft | 401 kts | 84° |
| 2026-05-09 13:59 | 52.27688 | 105.16035 | 13803 ft | 405 kts | 84° |
| 2026-05-09 13:59 | 52.27814 | 105.20661 | 14314 ft | 410 kts | 84° |
| 2026-05-09 13:59 | 52.27939 | 105.25329 | 14850 ft | 413 kts | 84° |
| 2026-05-09 13:59 | 52.28066 | 105.30040 | 15379 ft | 416 kts | 85° |
| 2026-05-09 14:00 | 52.28192 | 105.34783 | 15899 ft | 420 kts | 85° |
| 2026-05-09 14:00 | 52.28232 | 105.36390 | 16069 ft | 421 kts | 85° |
| 2026-05-09 14:00 | 52.28412 | 105.44379 | 16943 ft | 426 kts | 85° |
| 2026-05-09 14:00 | 52.28508 | 105.49234 | 17453 ft | 429 kts | 85° |
| 2026-05-09 14:01 | 52.28599 | 105.54124 | 17948 ft | 432 kts | 86° |
| 2026-05-09 14:01 | 52.28686 | 105.59044 | 18394 ft | 435 kts | 86° |
| 2026-05-09 14:01 | 52.28774 | 105.64004 | 18829 ft | 438 kts | 85° |
| 2026-05-09 14:01 | 52.28864 | 105.68993 | 19258 ft | 441 kts | 85° |
| 2026-05-09 14:02 | 52.28956 | 105.74011 | 19685 ft | 443 kts | 85° |
| 2026-05-09 14:02 | 52.29048 | 105.79055 | 20099 ft | 446 kts | 85° |
| 2026-05-09 14:02 | 52.29138 | 105.84132 | 20524 ft | 448 kts | 85° |
| 2026-05-09 14:02 | 52.29226 | 105.89223 | 20932 ft | 450 kts | 85° |
| 2026-05-09 14:03 | 52.29310 | 105.94359 | 21333 ft | 453 kts | 85° |
| 2026-05-09 14:03 | 52.29363 | 105.97763 | 21589 ft | 454 kts | 85° |
| 2026-05-09 14:03 | 52.29440 | 106.02940 | 21980 ft | 457 kts | 85° |
| 2026-05-09 14:03 | 52.29544 | 106.09827 | 22500 ft | 460 kts | 85° |
| 2026-05-09 14:04 | 52.29625 | 106.15067 | 22880 ft | 462 kts | 85° |
| 2026-05-09 14:04 | 52.29704 | 106.20320 | 23267 ft | 464 kts | 85° |
| 2026-05-09 14:04 | 52.29779 | 106.25604 | 23628 ft | 466 kts | 85° |
| 2026-05-09 14:04 | 52.29850 | 106.30911 | 23949 ft | 468 kts | 85° |
| 2026-05-09 14:05 | 52.29895 | 106.34442 | 24150 ft | 470 kts | 85° |
| 2026-05-09 14:05 | 52.29958 | 106.39779 | 24457 ft | 471 kts | 85° |
| 2026-05-09 14:05 | 52.30034 | 106.45149 | 24751 ft | 472 kts | 83° |
| 2026-05-09 14:05 | 52.30441 | 106.50448 | 25035 ft | 469 kts | 74° |
| 2026-05-09 14:06 | 52.31241 | 106.55598 | 25327 ft | 468 kts | 71° |
| 2026-05-09 14:06 | 52.32093 | 106.60743 | 25623 ft | 470 kts | 71° |
| 2026-05-09 14:06 | 52.32942 | 106.65915 | 25875 ft | 473 kts | 71° |
| 2026-05-09 14:06 | 52.33789 | 106.71116 | 26119 ft | 475 kts | 71° |
| 2026-05-09 14:07 | 52.34637 | 106.76352 | 26391 ft | 477 kts | 71° |
| 2026-05-09 14:07 | 52.35483 | 106.81595 | 26719 ft | 477 kts | 71° |